createdAt,value
2022-09-05T00:03:13.409Z,3.95
2022-09-05T00:13:20.883Z,3.72
2022-09-05T00:24:37.912Z,3.70
2022-09-05T00:34:13.791Z,4.00
2022-09-05T00:44:21.518Z,3.97
2022-09-05T00:54:56.493Z,4.20
2022-09-05T01:05:05.138Z,3.55
2022-09-05T01:15:19.178Z,3.95
2022-09-05T01:25:38.173Z,4.28
2022-09-05T01:36:04.091Z,3.40
2022-09-05T01:46:26.749Z,3.30
2022-09-05T01:56:43.067Z,3.80
2022-09-05T02:06:52.699Z,3.75
2022-09-05T02:17:08.131Z,3.47
2022-09-05T02:28:04.721Z,3.83
2022-09-05T02:43:14.338Z,3.70
2022-09-05T02:48:39.382Z,3.58
2022-09-05T02:59:09.717Z,3.75
2022-09-05T03:09:31.778Z,3.60
2022-09-05T03:20:08.769Z,3.60
2022-09-05T03:30:15.541Z,3.60
2022-09-05T03:40:57.507Z,3.40
2022-09-05T03:57:04.401Z,3.47
2022-09-05T04:04:03.663Z,3.55
2022-09-05T04:12:16.217Z,3.58
2022-09-05T04:22:24.267Z,3.78
2022-09-05T04:32:41.014Z,4.10
2022-09-05T04:42:44.261Z,3.95
2022-09-05T04:53:15.183Z,3.92
2022-09-05T05:06:19.102Z,3.72
2022-09-05T05:17:58.463Z,3.72
2022-09-05T05:24:21.792Z,3.85
2022-09-05T05:34:30.539Z,3.70
2022-09-05T05:44:38.140Z,3.67
2022-09-05T05:54:49.884Z,3.63
2022-09-05T06:05:33.229Z,4.72
2022-09-05T06:16:06.535Z,4.50
2022-09-05T06:26:26.630Z,4.50
2022-09-05T06:36:49.764Z,4.70
2022-09-05T06:47:22.814Z,4.15
2022-09-05T06:57:46.584Z,4.30
2022-09-05T07:07:54.314Z,4.45
2022-09-05T07:18:11.076Z,4.35
2022-09-05T07:28:28.772Z,3.30
2022-09-05T07:38:52.269Z,4.03
2022-09-05T07:49:04.843Z,4.20
2022-09-05T07:59:12.242Z,3.88
2022-09-05T08:10:08.701Z,3.70
2022-09-05T08:20:05.514Z,3.45
2022-09-05T08:30:26.283Z,3.13
2022-09-05T08:40:38.923Z,3.50
2022-09-05T08:50:56.483Z,3.40
2022-09-05T09:01:10.499Z,3.15
2022-09-05T09:11:29.031Z,3.10
2022-09-05T09:21:43.549Z,2.70
2022-09-05T09:32:03.065Z,2.58
2022-09-05T09:42:33.166Z,2.25
2022-09-05T09:53:13.245Z,1.70
2022-09-05T10:10:36.482Z,1.83
2022-09-05T10:14:59.472Z,2.22
2022-09-05T10:25:33.045Z,1.80
2022-09-05T10:35:41.610Z,1.42
2022-09-05T10:45:48.654Z,1.70
2022-09-05T10:56:05.336Z,2.58
2022-09-05T11:06:14.435Z,2.30
2022-09-05T11:16:29.641Z,2.63
2022-09-05T11:26:37.109Z,2.38
2022-09-05T11:40:04.115Z,1.88
2022-09-05T11:48:01.221Z,2.47
2022-09-05T11:58:45.493Z,2.30
2022-09-05T12:08:55.729Z,1.80
2022-09-05T12:19:19.154Z,1.70
2022-09-05T12:29:29.662Z,1.73
2022-09-05T12:40:44.975Z,1.88
2022-09-05T12:50:16.984Z,1.83
2022-09-05T13:03:08.223Z,1.77
2022-09-05T13:15:02.696Z,1.80
2022-09-05T13:21:23.415Z,1.85
2022-09-05T13:38:01.293Z,1.90
2022-09-05T13:42:33.806Z,1.73
2022-09-05T13:52:40.909Z,1.83
2022-09-05T14:13:28.457Z,1.90
2022-09-05T14:23:43.365Z,1.73
2022-09-05T14:37:40.490Z,1.65
2022-09-05T14:45:02.373Z,1.80
2022-09-05T14:55:19.215Z,2.10
2022-09-05T15:05:39.984Z,1.90
2022-09-05T15:15:56.413Z,1.75
2022-09-05T15:26:16.848Z,2.10
2022-09-05T15:36:33.539Z,1.73
2022-09-05T15:46:46.903Z,1.83
2022-09-05T15:56:52.471Z,1.80
2022-09-05T16:10:36.222Z,2.08
2022-09-05T16:23:20.642Z,2.05
2022-09-05T16:27:57.795Z,2.00
2022-09-05T16:38:10.428Z,2.30
2022-09-05T16:48:30.045Z,2.00
2022-09-05T16:58:36.933Z,2.10
2022-09-05T17:08:41.368Z,2.00
2022-09-05T17:18:46.530Z,2.30
2022-09-05T17:29:46.966Z,2.00
2022-09-05T17:39:45.151Z,2.30
2022-09-05T17:50:10.071Z,2.10
2022-09-05T18:01:04.522Z,2.15
2022-09-05T18:11:14.317Z,2.88
2022-09-05T18:21:22.486Z,3.00
2022-09-05T18:32:02.957Z,2.95
2022-09-05T18:42:34.052Z,3.13
2022-09-05T18:52:41.254Z,2.95
2022-09-05T19:02:51.492Z,3.13
2022-09-05T19:13:11.594Z,3.65
2022-09-05T19:23:23.800Z,4.50
2022-09-05T19:36:56.453Z,4.10
2022-09-05T19:47:52.055Z,3.70
2022-09-05T19:54:29.062Z,3.33
2022-09-05T20:04:37.162Z,3.88
2022-09-05T20:14:42.226Z,3.58
2022-09-05T20:24:48.611Z,3.75
2022-09-05T20:38:44.485Z,3.60
2022-09-05T20:46:41.943Z,3.60
2022-09-05T20:56:20.509Z,3.47
2022-09-05T21:06:27.164Z,3.85
2022-09-05T21:16:33.410Z,3.80
2022-09-05T21:26:37.153Z,3.60
2022-09-05T21:36:41.775Z,3.30
2022-09-05T21:47:48.487Z,3.42
2022-09-05T21:59:20.807Z,3.83
2022-09-05T22:07:37.804Z,3.50
2022-09-05T22:17:43.394Z,3.78
2022-09-05T22:27:46.667Z,3.67
2022-09-05T22:37:59.522Z,3.20
2022-09-05T22:48:08.253Z,3.47
2022-09-05T22:58:15.248Z,3.60
2022-09-05T23:08:18.283Z,3.55
2022-09-05T23:18:22.793Z,3.40
2022-09-05T23:28:26.165Z,3.28
2022-09-05T23:38:31.461Z,3.80
2022-09-05T23:48:34.939Z,3.45
2022-09-05T23:58:39.658Z,3.40
